Time;durP1;ratioP1;P1;durP2;ratioP2;P2;SDS_P1;SDS_P2;PMS_P1;PMS_P2;Temp;Humidity;BMP_temperature;BMP_pressure;BME280_temperature;BME280_humidity;BME280_pressure;Samples;Min_cycle;Max_cycle;Signal;HPM_P1;HPM_P2
2023/04/28 00:00:12;;;;;;;3.40;1.40;;;;;;;11.91;82.69;98427.13;4567120;31;20244;-63
2023/04/28 00:02:39;;;;;;;2.57;1.20;;;;;;;11.90;84.24;98427.31;4569459;31;20239;-64
2023/04/28 00:05:06;;;;;;;2.57;1.50;;;;;;;11.87;84.28;98420.59;4569026;31;20240;-64
2023/04/28 00:07:32;;;;;;;1.53;1.20;;;;;;;11.89;84.04;98413.41;4571676;31;20267;-64
2023/04/28 00:09:59;;;;;;;2.73;1.33;;;;;;;11.86;84.13;98416.34;4569211;31;20233;-64
2023/04/28 00:12:25;;;;;;;2.20;1.30;;;;;;;11.84;85.56;98401.81;4567612;31;20252;-64
2023/04/28 00:14:52;;;;;;;2.63;1.20;;;;;;;11.82;85.71;98413.25;4571377;31;20754;-64
2023/04/28 00:17:26;;;;;;;1.67;1.30;;;;;;;11.86;85.44;98408.50;4567098;31;20249;-64
2023/04/28 00:19:52;;;;;;;2.50;1.10;;;;;;;11.87;86.43;98412.75;4571527;31;21028;-64
2023/04/28 00:22:24;;;;;;;3.03;1.53;;;;;;;11.82;86.58;98412.44;4568029;31;20263;-64
2023/04/28 00:24:51;;;;;;;3.15;1.60;;;;;;;11.80;85.60;98411.78;4602703;30;20527;-63
2023/04/28 00:27:24;;;;;;;2.07;1.40;;;;;;;11.86;87.08;98408.50;4699618;30;20243;-63
2023/04/28 00:29:51;;;;;;;2.43;1.30;;;;;;;11.82;87.31;98401.97;4741352;29;20238;-63
2023/04/28 00:32:44;;;;;;;1.47;1.37;;;;;;;11.82;87.66;98409.81;4664599;30;20242;-63
2023/04/28 00:35:11;;;;;;;3.07;1.50;;;;;;;11.82;87.14;98401.97;4723490;29;20233;-63
2023/04/28 00:37:38;;;;;;;4.37;1.30;;;;;;;11.79;87.72;98395.28;4760989;29;20315;-63
2023/04/28 00:40:06;;;;;;;3.60;1.23;;;;;;;11.81;87.26;98401.16;4759180;29;20591;-63
2023/04/28 00:42:33;;;;;;;2.70;1.40;;;;;;;11.79;88.89;98410.97;4775331;29;20643;-63
2023/04/28 00:45:04;;;;;;;2.33;1.27;;;;;;;11.83;88.96;98401.00;4779626;29;20619;-63
2023/04/28 00:47:31;;;;;;;2.63;1.60;;;;;;;11.78;89.16;98401.50;4757387;29;20241;-63
2023/04/28 00:49:59;;;;;;;3.30;1.27;;;;;;;11.78;90.06;98405.91;4775358;29;20229;-63
2023/04/28 00:52:26;;;;;;;3.20;1.57;;;;;;;11.76;91.43;98402.63;4769300;29;20248;-63
2023/04/28 00:54:52;;;;;;;2.60;1.20;;;;;;;11.74;90.71;98401.97;4777926;29;20283;-63
2023/04/28 00:57:24;;;;;;;3.87;1.70;;;;;;;11.71;90.94;98394.44;4758254;29;20814;-63
2023/04/28 00:59:51;;;;;;;1.30;1.20;;;;;;;11.66;90.76;98382.69;4767145;29;20740;-63
2023/04/28 01:02:24;;;;;;;3.67;1.70;;;;;;;11.65;90.94;98377.63;4744415;29;20265;-63
2023/04/28 01:04:53;;;;;;;4.50;1.57;;;;;;;11.62;90.46;98373.56;4778898;29;20226;-63
2023/04/28 01:07:26;;;;;;;2.53;1.67;;;;;;;11.64;89.78;98370.78;4761713;29;20247;-63
2023/04/28 01:09:52;;;;;;;3.90;1.70;;;;;;;11.67;89.25;98368.63;4770832;29;20248;-63
2023/04/28 01:12:30;;;;;;;3.07;1.63;;;;;;;11.66;88.38;98356.53;4757998;29;20709;-63
2023/04/28 01:14:57;;;;;;;1.40;1.30;;;;;;;11.72;91.01;98362.94;4777276;29;20791;-63
2023/04/28 01:17:24;;;;;;;2.33;1.50;;;;;;;11.72;89.58;98362.94;4774374;29;20246;-63
2023/04/28 01:19:52;;;;;;;3.37;1.50;;;;;;;11.75;89.93;98352.13;4763945;29;20236;-63
2023/04/28 01:22:25;;;;;;;6.73;1.37;;;;;;;11.77;89.49;98362.41;4773820;29;20283;-63
2023/04/28 01:24:53;;;;;;;3.03;1.70;;;;;;;11.73;89.85;98361.94;4774690;29;20690;-64
2023/04/28 01:27:24;;;;;;;4.27;1.80;;;;;;;11.74;89.87;98363.59;4789578;29;20743;-65
2023/04/28 01:29:50;;;;;;;1.90;1.70;;;;;;;11.75;88.73;98367.00;4800304;29;20286;-63
2023/04/28 01:32:42;;;;;;;2.37;1.33;;;;;;;11.77;89.88;98362.41;4809707;29;20245;-65
2023/04/28 01:35:09;;;;;;;1.80;1.57;;;;;;;11.79;89.91;98361.28;4799915;29;20224;-64
2023/04/28 01:37:36;;;;;;;3.50;1.67;;;;;;;11.77;90.27;98362.41;4809871;29;20231;-64
2023/04/28 01:40:05;;;;;;;2.40;1.73;;;;;;;11.79;90.38;98366.53;4798169;29;20228;-64
2023/04/28 01:42:32;;;;;;;3.73;1.40;;;;;;;11.81;90.20;98380.25;4800402;29;20296;-64
2023/04/28 01:45:02;;;;;;;2.80;1.30;;;;;;;11.80;90.16;98383.00;4809493;29;20237;-64
2023/04/28 01:47:28;;;;;;;3.60;1.50;;;;;;;11.84;91.16;98391.34;4813521;29;20237;-64
2023/04/28 01:49:55;;;;;;;4.03;2.00;;;;;;;11.84;91.57;98404.44;4813144;29;20228;-64
2023/04/28 01:52:24;;;;;;;2.47;1.63;;;;;;;11.84;90.63;98407.06;4808024;29;20588;-64
2023/04/28 01:55:29;;;;;;;1.87;1.50;;;;;;;11.83;90.61;98414.06;4800156;29;20236;-65
2023/04/28 01:57:57;;;;;;;1.90;1.57;;;;;;;11.89;89.57;98421.25;4814669;29;20228;-64
2023/04/28 02:00:24;;;;;;;1.90;1.47;;;;;;;11.92;88.53;98399.19;4811411;29;20637;-64
2023/04/28 02:02:51;;;;;;;3.13;1.80;;;;;;;11.93;90.92;98388.56;4801476;29;20225;-64
2023/04/28 02:05:18;;;;;;;3.03;1.67;;;;;;;11.92;90.83;98388.75;4811140;29;20235;-64
2023/04/28 02:07:47;;;;;;;4.27;2.20;;;;;;;11.93;89.93;98388.56;4813697;29;20239;-64
2023/04/28 02:10:14;;;;;;;2.53;1.87;;;;;;;11.92;89.93;98391.34;4811279;29;20281;-64
2023/04/28 02:12:41;;;;;;;4.00;2.17;;;;;;;11.94;89.94;98397.25;4814357;29;21210;-64
2023/04/28 02:15:10;;;;;;;2.63;2.07;;;;;;;11.99;90.66;98408.03;4803590;29;20240;-64
2023/04/28 02:17:36;;;;;;;2.37;1.90;;;;;;;11.98;89.02;98410.78;4801935;29;20935;-64
2023/04/28 02:20:03;;;;;;;2.60;1.90;;;;;;;11.98;87.80;98410.78;4811280;29;20283;-64
2023/04/28 02:22:30;;;;;;;3.47;1.73;;;;;;;11.96;88.56;98424.84;4792757;29;20235;-64
2023/04/28 02:24:57;;;;;;;5.28;2.30;;;;;;;12.00;90.28;98435.00;4813489;29;20469;-64
2023/04/28 02:27:24;;;;;;;5.10;1.90;;;;;;;11.96;91.26;98422.22;4792454;29;20242;-64
2023/04/28 02:29:51;;;;;;;2.93;2.17;;;;;;;11.92;92.08;98422.75;4794235;29;20232;-64
2023/04/28 02:32:25;;;;;;;3.10;2.43;;;;;;;11.90;91.76;98409.81;4785877;29;20241;-64
2023/04/28 02:34:53;;;;;;;4.30;2.53;;;;;;;11.92;91.55;98431.38;4794310;29;20224;-64
2023/04/28 02:37:24;;;;;;;2.50;2.10;;;;;;;11.89;93.03;98434.34;4829781;29;20303;-64
2023/04/28 02:39:51;;;;;;;4.57;2.50;;;;;;;11.92;90.09;98428.78;4822514;29;20235;-64
2023/04/28 02:42:42;;;;;;;3.20;2.33;;;;;;;11.94;90.85;98421.59;4817504;29;20239;-64
2023/04/28 02:45:09;;;;;;;3.70;2.73;;;;;;;11.94;90.69;98433.84;4811220;29;20331;-64
2023/04/28 02:47:37;;;;;;;9.00;3.00;;;;;;;11.99;91.12;98428.13;4818576;29;20236;-64
2023/04/28 02:50:04;;;;;;;4.07;2.77;;;;;;;11.96;93.76;98408.34;4806546;29;20239;-64
2023/04/28 02:52:31;;;;;;;3.93;2.60;;;;;;;11.96;93.39;98406.53;4824302;29;20224;-64
2023/04/28 02:54:58;;;;;;;3.97;2.93;;;;;;;11.93;96.59;98401.63;4814658;29;20235;-64
2023/04/28 02:57:25;;;;;;;5.23;2.80;;;;;;;11.92;97.65;98391.34;4828249;29;20243;-64
2023/04/28 02:59:52;;;;;;;5.77;3.20;;;;;;;11.84;100.00;98405.25;4816352;29;20230;-64
2023/04/28 03:05:10;;;;;;;4.77;2.90;;;;;;;11.80;100.00;98396.91;4965744;23;20679;-64
2023/04/28 03:07:37;;;;;;;3.17;2.70;;;;;;;11.77;100.00;98402.47;4909614;29;20225;-64
2023/04/28 03:10:04;;;;;;;4.07;3.40;;;;;;;11.74;100.00;98397.56;4906470;29;20232;-64
2023/04/28 03:12:31;;;;;;;6.77;3.30;;;;;;;11.77;99.43;98392.00;4903293;29;20320;-64
2023/04/28 03:14:57;;;;;;;5.90;3.30;;;;;;;11.74;100.00;98386.28;4904221;29;20384;-64
2023/04/28 03:17:24;;;;;;;7.17;3.70;;;;;;;11.71;100.00;98386.59;4872234;29;21717;-64
2023/04/28 03:19:51;;;;;;;5.07;3.27;;;;;;;11.71;100.00;98389.22;4892658;29;20279;-64
2023/04/28 03:22:43;;;;;;;5.23;3.57;;;;;;;11.70;100.00;98384.97;4889014;29;20244;-64
2023/04/28 03:25:10;;;;;;;6.40;3.57;;;;;;;11.69;100.00;98378.94;4901564;29;20239;-64
2023/04/28 03:27:45;;;;;;;4.40;3.10;;;;;;;11.70;100.00;98377.13;4905128;29;20239;-64
2023/04/28 03:32:53;;;;;;;5.93;3.40;;;;;;;11.68;100.00;98374.69;4955760;23;20629;-65
2023/04/28 03:35:20;;;;;;;6.00;3.10;;;;;;;11.67;100.00;98368.63;4880950;29;20232;-65
2023/04/28 03:37:48;;;;;;;5.53;3.53;;;;;;;11.70;100.00;98366.66;4881688;29;20227;-65
2023/04/28 03:40:15;;;;;;;4.23;3.20;;;;;;;11.70;100.00;98372.72;4878981;29;20237;-64
2023/04/28 03:43:14;;;;;;;5.93;3.70;;;;;;;11.78;100.00;98348.38;4880308;29;20332;-64
2023/04/28 03:45:49;;;;;;;5.57;3.07;;;;;;;11.73;100.00;98353.28;4882074;29;20304;-64
2023/04/28 03:48:15;;;;;;;6.00;3.60;;;;;;;11.69;100.00;98344.97;4882558;29;21338;-64
2023/04/28 03:50:44;;;;;;;5.83;3.60;;;;;;;11.66;100.00;98337.44;4881702;29;20580;-64
2023/04/28 03:53:12;;;;;;;8.37;3.40;;;;;;;11.62;100.00;98326.50;4876610;29;20256;-64
2023/04/28 03:55:38;;;;;;;5.77;3.73;;;;;;;11.62;100.00;98323.91;4881969;29;20230;-64
2023/04/28 03:58:05;;;;;;;5.93;3.50;;;;;;;11.59;100.00;98326.00;4878658;29;20228;-64
2023/04/28 04:00:34;;;;;;;6.13;3.43;;;;;;;11.61;100.00;98324.03;4879773;29;20235;-65
2023/04/28 04:03:01;;;;;;;4.17;3.40;;;;;;;11.60;100.00;98327.63;4876050;29;20232;-64
2023/04/28 04:05:28;;;;;;;3.73;3.13;;;;;;;11.59;100.00;98321.59;4880699;29;20733;-64
2023/04/28 04:07:55;;;;;;;7.63;3.20;;;;;;;11.61;100.00;98322.25;4883251;29;20297;-64
2023/04/28 04:10:22;;;;;;;3.77;2.50;;;;;;;11.64;100.00;98314.09;4880544;29;20247;-64
2023/04/28 04:12:50;;;;;;;4.53;2.90;;;;;;;11.65;100.00;98305.25;4879908;29;20248;-65
2023/04/28 04:15:16;;;;;;;3.70;2.90;;;;;;;11.66;100.00;98304.25;4862208;28;20233;-65
2023/04/28 04:17:47;;;;;;;6.00;3.13;;;;;;;11.68;100.00;98296.25;4880321;29;20237;-65
2023/04/28 04:20:15;;;;;;;5.67;2.97;;;;;;;11.73;100.00;98306.22;4863210;28;20703;-64
2023/04/28 04:22:41;;;;;;;6.00;2.97;;;;;;;11.72;100.00;98320.25;4882676;29;20730;-64
2023/04/28 04:25:08;;;;;;;4.97;2.83;;;;;;;11.67;100.00;98305.88;4870904;29;20237;-64
2023/04/28 04:27:37;;;;;;;5.03;3.07;;;;;;;11.73;100.00;98327.94;4879630;29;20236;-64
2023/04/28 04:30:04;;;;;;;21.73;7.93;;;;;;;11.72;100.00;98333.34;4878761;29;20231;-64
2023/04/28 04:32:31;;;;;;;11.70;6.13;;;;;;;11.72;100.00;98320.25;4881129;29;20327;-64
2023/04/28 04:34:58;;;;;;;17.07;7.23;;;;;;;11.73;100.00;98327.13;4894369;29;20318;-64
2023/04/28 04:37:25;;;;;;;13.93;6.50;;;;;;;11.72;100.00;98328.09;4879659;29;20321;-64
2023/04/28 04:39:57;;;;;;;13.77;7.80;;;;;;;11.73;100.00;98321.91;4893654;29;20240;-64
2023/04/28 04:42:24;;;;;;;9.47;5.53;;;;;;;11.74;100.00;98321.75;4894384;29;20732;-64
2023/04/28 04:45:16;;;;;;;10.03;3.97;;;;;;;11.80;100.00;98321.09;4882949;29;20245;-64
2023/04/28 04:47:43;;;;;;;5.13;3.67;;;;;;;11.80;100.00;98321.09;4886033;29;20252;-64
2023/04/28 04:50:11;;;;;;;8.13;4.10;;;;;;;11.82;100.00;98318.28;4895972;29;20332;-64
2023/04/28 04:52:38;;;;;;;8.90;8.00;;;;;;;11.84;100.00;98321.56;4896114;29;20752;-64
2023/04/28 04:55:05;;;;;;;13.00;11.60;;;;;;;11.76;100.00;98330.25;4876434;29;20812;-64
2023/04/28 04:57:33;;;;;;;11.30;10.10;;;;;;;11.79;100.00;98319.44;4893805;29;20228;-64
2023/04/28 05:00:08;;;;;;;9.57;7.63;;;;;;;11.81;100.00;98325.31;4884031;29;20308;-64
2023/04/28 05:02:37;;;;;;;11.00;9.80;;;;;;;11.81;100.00;98322.72;4896456;29;20679;-64
2023/04/28 05:05:05;;;;;;;7.87;5.80;;;;;;;11.83;100.00;98317.31;4892209;29;20242;-64
2023/04/28 05:07:33;;;;;;;9.57;6.03;;;;;;;11.94;100.00;98310.94;4886780;29;20247;-64
2023/04/28 05:10:00;;;;;;;4.70;3.80;;;;;;;11.87;100.00;98329.06;4895224;29;20269;-64
2023/04/28 05:12:27;;;;;;;8.30;5.60;;;;;;;11.88;100.00;98333.31;4894578;29;20260;-64
2023/04/28 05:14:53;;;;;;;8.70;5.13;;;;;;;11.90;100.00;98327.94;4881047;29;20708;-64
2023/04/28 05:17:24;;;;;;;8.07;5.43;;;;;;;11.94;100.00;98335.25;4877858;29;20730;-64
2023/04/28 05:19:52;;;;;;;5.73;3.70;;;;;;;12.04;100.00;98331.69;4886920;29;20275;-64
2023/04/28 05:22:24;;;;;;;4.80;3.57;;;;;;;12.07;100.00;98323.50;4871793;29;20638;-64
2023/04/28 05:24:51;;;;;;;4.23;3.83;;;;;;;12.11;100.00;98330.03;4895093;29;20280;-64
2023/04/28 05:27:24;;;;;;;5.73;3.40;;;;;;;12.18;100.00;98322.34;4885282;29;20240;-64
2023/04/28 05:29:51;;;;;;;16.57;11.33;;;;;;;12.29;100.00;98321.16;4881136;29;20251;-64
2023/04/28 05:32:42;;;;;;;6.40;4.80;;;;;;;12.36;100.00;98322.09;4881727;29;20289;-64
2023/04/28 05:35:10;;;;;;;6.77;3.80;;;;;;;12.42;100.00;98315.34;4884829;29;20226;-64
2023/04/28 05:37:37;;;;;;;5.17;2.47;;;;;;;12.49;100.00;98314.53;4885567;29;20240;-64
2023/04/28 05:40:05;;;;;;;6.07;3.03;;;;;;;12.62;100.00;98313.16;4897974;29;20236;-64
2023/04/28 05:42:33;;;;;;;2.43;2.23;;;;;;;12.68;100.00;98313.28;4880182;29;20774;-64
2023/04/28 05:44:59;;;;;;;3.20;2.33;;;;;;;12.75;100.00;98318.63;4883354;29;20237;-64
2023/04/28 05:47:26;;;;;;;3.60;2.60;;;;;;;12.79;100.00;98319.09;4898923;29;20802;-64
2023/04/28 05:49:53;;;;;;;4.10;1.93;;;;;;;12.86;100.00;98322.66;4901945;29;20372;-64
2023/04/28 05:52:25;;;;;;;2.70;1.80;;;;;;;12.93;100.00;98312.31;4897942;29;20319;-64
2023/04/28 05:54:53;;;;;;;3.17;1.67;;;;;;;13.11;100.00;98318.06;4894101;29;20326;-64
2023/04/28 05:57:24;;;;;;;2.77;2.47;;;;;;;13.24;100.00;98307.03;4895643;29;20324;-64
2023/04/28 05:59:51;;;;;;;3.20;1.90;;;;;;;13.24;100.00;98307.03;4900114;29;20690;-65
2023/04/28 06:02:43;;;;;;;2.10;1.90;;;;;;;13.35;100.00;98307.56;4872234;29;20461;-64
2023/04/28 06:05:10;;;;;;;1.67;1.50;;;;;;;13.36;100.00;98304.78;4893958;29;20240;-64
2023/04/28 06:07:38;;;;;;;3.23;1.57;;;;;;;13.40;100.00;98300.81;4892758;29;20234;-64
2023/04/28 06:10:05;;;;;;;4.13;1.73;;;;;;;13.37;100.00;98309.03;4895637;29;20238;-64
2023/04/28 06:12:32;;;;;;;1.57;1.47;;;;;;;13.43;100.00;98307.53;4900240;29;20664;-65
2023/04/28 06:14:58;;;;;;;1.60;1.50;;;;;;;13.43;100.00;98304.91;4891547;29;20320;-65
2023/04/28 06:17:26;;;;;;;2.30;1.37;;;;;;;13.48;100.00;98304.41;4888902;29;20238;-65
2023/04/28 06:19:54;;;;;;;2.30;1.40;;;;;;;13.53;100.00;98296.81;4901860;29;20269;-65
2023/04/28 06:22:24;;;;;;;1.60;1.07;;;;;;;13.57;100.00;98300.72;4894076;29;20252;-65
2023/04/28 06:24:52;;;;;;;2.53;1.30;;;;;;;13.60;100.00;98305.59;4884682;29;20236;-65
2023/04/28 06:27:33;;;;;;;1.53;1.33;;;;;;;13.70;100.00;98300.09;4875712;29;20272;-65
2023/04/28 06:29:59;;;;;;;1.30;1.20;;;;;;;13.73;100.00;98300.56;4883473;29;20244;-65
2023/04/28 06:32:26;;;;;;;1.70;1.40;;;;;;;13.77;100.00;98306.25;4894803;29;20230;-65
2023/04/28 06:34:52;;;;;;;1.77;1.10;;;;;;;13.79;100.00;98295.56;4878575;29;20249;-65
2023/04/28 06:37:26;;;;;;;1.07;0.97;;;;;;;13.83;100.00;98302.06;4883526;29;20268;-65
2023/04/28 06:39:53;;;;;;;9.20;6.30;;;;;;;13.84;100.00;98301.91;4899829;29;20238;-65
2023/04/28 06:42:24;;;;;;;12.27;5.77;;;;;;;13.90;100.00;98304.81;4894811;29;20261;-65
2023/04/28 06:44:57;;;;;;;46.97;17.53;;;;;;;13.91;100.00;98301.19;4899321;29;20234;-65
2023/04/28 06:47:27;;;;;;;32.97;16.13;;;;;;;13.92;100.00;98287.88;4898139;29;20668;-65
2023/04/28 06:49:54;;;;;;;6.47;4.27;;;;;;;13.99;100.00;98303.72;4903472;29;20268;-65
2023/04/28 06:52:27;;;;;;;4.67;3.13;;;;;;;14.05;100.00;98294.31;4876330;29;20238;-65
2023/04/28 06:54:55;;;;;;;2.70;1.80;;;;;;;14.13;100.00;98296.84;4898572;29;20233;-65
2023/04/28 06:57:24;;;;;;;2.37;1.87;;;;;;;14.11;100.00;98291.78;4882074;29;20250;-65
2023/04/28 06:59:51;;;;;;;1.90;1.70;;;;;;;14.21;100.00;98296.75;4899482;29;20234;-65
2023/04/28 07:02:24;;;;;;;1.77;1.10;;;;;;;14.25;100.00;98298.00;4881385;29;20243;-65
2023/04/28 07:04:50;;;;;;;3.23;1.97;;;;;;;14.25;100.00;98308.50;4898618;29;20236;-65
2023/04/28 07:07:21;;;;;;;1.67;1.57;;;;;;;14.33;100.00;98315.47;4882164;29;20242;-65
2023/04/28 07:09:47;;;;;;;2.50;1.30;;;;;;;14.39;100.00;98313.94;4876436;29;20241;-65
2023/04/28 07:12:15;;;;;;;2.77;1.53;;;;;;;14.27;100.00;98322.28;4888627;29;20726;-65
2023/04/28 07:14:42;;;;;;;1.67;1.50;;;;;;;14.27;100.00;98332.78;4883593;29;20636;-65
2023/04/28 07:17:09;;;;;;;3.10;1.60;;;;;;;14.13;100.00;98330.97;4880156;29;20238;-65
2023/04/28 07:19:35;;;;;;;1.90;1.77;;;;;;;14.19;100.00;98340.75;4884038;29;20493;-65
2023/04/28 07:22:02;;;;;;;3.83;1.77;;;;;;;14.10;100.00;98347.06;4881159;29;20246;-65
2023/04/28 07:24:29;;;;;;;4.57;2.30;;;;;;;14.06;100.00;98348.44;4880699;29;20296;-65
2023/04/28 07:26:56;;;;;;;1.87;1.60;;;;;;;13.88;100.00;98347.78;4898112;29;20234;-65
2023/04/28 07:29:25;;;;;;;3.20;2.07;;;;;;;13.95;100.00;98347.88;4870474;29;20245;-65
2023/04/28 07:31:52;;;;;;;2.73;1.77;;;;;;;13.93;100.00;98343.81;4894091;29;20255;-65
2023/04/28 07:34:19;;;;;;;5.37;2.90;;;;;;;13.86;100.00;98351.56;4879824;29;20564;-65
2023/04/28 07:36:46;;;;;;;2.77;1.93;;;;;;;13.71;100.00;98343.69;4871170;29;20252;-65
2023/04/28 07:39:13;;;;;;;2.83;2.10;;;;;;;13.67;100.00;98358.16;4872955;29;20228;-65
2023/04/28 07:41:40;;;;;;;2.17;1.80;;;;;;;13.60;100.00;98360.69;4880714;29;20245;-65
2023/04/28 07:44:07;;;;;;;2.77;1.77;;;;;;;13.61;100.00;98359.69;4879459;29;20238;-65
2023/04/28 07:46:35;;;;;;;2.83;1.47;;;;;;;13.63;100.00;98368.19;4883953;29;20330;-65
2023/04/28 07:49:02;;;;;;;2.97;1.83;;;;;;;13.65;100.00;98366.19;4876110;29;20238;-65
2023/04/28 07:51:28;;;;;;;2.93;1.87;;;;;;;13.67;100.00;98369.47;4883779;29;20754;-65
2023/04/28 07:53:55;;;;;;;2.73;1.40;;;;;;;13.69;100.00;98372.72;4886697;29;20246;-65
2023/04/28 07:56:23;;;;;;;3.67;2.40;;;;;;;13.66;100.00;98370.47;4881005;29;20244;-65
2023/04/28 07:58:51;;;;;;;2.60;1.90;;;;;;;13.65;100.00;98371.44;4883059;29;20232;-65
2023/04/28 08:01:18;;;;;;;1.67;1.40;;;;;;;13.76;100.00;98374.66;4881755;29;20242;-65
2023/04/28 08:03:46;;;;;;;1.60;1.47;;;;;;;13.77;100.00;98369.22;4880710;29;20247;-65
2023/04/28 08:06:13;;;;;;;2.97;1.80;;;;;;;13.85;100.00;98379.63;4882003;29;20233;-65
2023/04/28 08:08:39;;;;;;;3.87;2.37;;;;;;;14.06;100.00;98390.41;4880482;29;20230;-65
2023/04/28 08:11:07;;;;;;;2.83;1.97;;;;;;;14.20;100.00;98399.31;4879029;29;20586;-65
2023/04/28 08:13:34;;;;;;;1.40;1.03;;;;;;;14.34;100.00;98395.84;4881472;29;20313;-65
2023/04/28 08:16:00;;;;;;;12.80;4.37;;;;;;;14.41;100.00;98404.66;4884175;29;20237;-65
2023/04/28 08:18:27;;;;;;;1.97;1.30;;;;;;;14.45;100.00;98403.28;4878129;29;20737;-65
2023/04/28 08:20:55;;;;;;;1.40;0.97;;;;;;;14.56;100.00;98409.91;4882763;29;20394;-65
2023/04/28 08:23:22;;;;;;;2.47;1.70;;;;;;;14.55;100.00;98417.97;4894185;29;20729;-65
2023/04/28 08:25:49;;;;;;;1.80;1.20;;;;;;;14.51;100.00;98417.53;4895685;29;20230;-65
2023/04/28 08:28:16;;;;;;;1.10;0.90;;;;;;;14.61;100.00;98423.31;4877013;29;20278;-65
2023/04/28 08:30:42;;;;;;;4.53;2.47;;;;;;;14.70;100.00;98420.63;4882242;29;20250;-65
2023/04/28 08:33:09;;;;;;;0.90;0.80;;;;;;;14.83;100.00;98423.44;4879749;29;20236;-65
2023/04/28 08:35:36;;;;;;;1.57;0.90;;;;;;;14.56;100.00;98430.09;4879800;29;21031;-65
2023/04/28 08:38:04;;;;;;;1.10;0.93;;;;;;;14.79;100.00;98439.72;4882610;29;20242;-65
2023/04/28 08:40:31;;;;;;;0.70;0.70;;;;;;;14.91;100.00;98425.94;4884545;29;20257;-65
2023/04/28 08:42:58;;;;;;;1.50;1.40;;;;;;;14.87;100.00;98439.63;4883188;29;20262;-65
2023/04/28 08:45:25;;;;;;;1.23;0.87;;;;;;;14.89;100.00;98435.81;4882013;29;20725;-65
2023/04/28 08:47:51;;;;;;;1.00;0.93;;;;;;;15.06;100.00;98432.97;4899422;29;20244;-65
2023/04/28 08:50:22;;;;;;;1.00;0.87;;;;;;;15.04;100.00;98437.59;4879758;29;20230;-65
2023/04/28 08:52:48;;;;;;;2.13;1.00;;;;;;;14.90;100.00;98432.19;4885010;29;20234;-65
2023/04/28 08:55:18;;;;;;;0.83;0.80;;;;;;;15.13;100.00;98427.81;4880149;29;20222;-65
2023/04/28 08:57:46;;;;;;;1.10;0.80;;;;;;;15.21;100.00;98435.59;4884041;29;20229;-65
2023/04/28 09:00:13;;;;;;;0.90;0.70;;;;;;;15.44;100.00;98442.47;4894931;29;20624;-65
2023/04/28 09:02:41;;;;;;;1.63;1.27;;;;;;;15.47;100.00;98442.09;4880631;29;20234;-65
2023/04/28 09:05:08;;;;;;;1.17;0.67;;;;;;;15.43;100.00;98439.03;4878501;29;20285;-65
2023/04/28 09:07:35;;;;;;;1.33;0.70;;;;;;;15.82;100.00;98436.97;4882472;29;20700;-65
2023/04/28 09:10:17;;;;;;;0.80;0.70;;;;;;;15.79;100.00;98443.44;4881589;29;20241;-65
2023/04/28 09:12:44;;;;;;;0.77;0.70;;;;;;;16.15;100.00;98438.25;4877953;29;20248;-65
2023/04/28 09:15:11;;;;;;;0.70;0.60;;;;;;;16.43;100.00;98435.59;4875040;29;20253;-65
2023/04/28 09:17:48;;;;;;;0.50;0.50;;;;;;;16.67;100.00;98447.50;4883183;29;20696;-65
2023/04/28 09:20:22;;;;;;;0.60;0.40;;;;;;;16.79;100.00;98450.41;4880327;29;20226;-65
2023/04/28 09:22:49;;;;;;;0.80;0.50;;;;;;;16.87;100.00;98452.06;4881517;29;20311;-65
2023/04/28 09:25:20;;;;;;;0.93;0.50;;;;;;;16.88;97.40;98445.78;4870267;29;20228;-66
2023/04/28 09:27:47;;;;;;;0.67;0.60;;;;;;;17.05;97.52;98453.38;4893534;29;20487;-65
2023/04/28 09:30:13;;;;;;;0.50;0.40;;;;;;;17.14;94.82;98446.91;4879323;29;20240;-65
2023/04/28 09:32:40;;;;;;;1.67;0.40;;;;;;;16.89;98.28;98444.78;4882983;29;20304;-65
2023/04/28 09:35:08;;;;;;;0.37;0.33;;;;;;;16.78;99.31;98443.50;4879825;29;20234;-65
2023/04/28 09:37:36;;;;;;;0.70;0.50;;;;;;;16.94;98.33;98441.53;4881662;29;20689;-65
2023/04/28 09:40:06;;;;;;;0.53;0.37;;;;;;;17.18;95.25;98444.72;4880024;29;20235;-65
2023/04/28 09:42:36;;;;;;;1.23;0.50;;;;;;;17.43;95.28;98444.16;4881092;29;20742;-65
2023/04/28 09:45:04;;;;;;;0.50;0.40;;;;;;;17.53;93.09;98445.41;4879187;29;20250;-65
2023/04/28 09:47:33;;;;;;;0.50;0.50;;;;;;;17.55;93.79;98448.66;4882325;29;20325;-65
2023/04/28 09:50:02;;;;;;;0.93;0.33;;;;;;;17.65;93.83;98456.16;4879700;29;20233;-65
2023/04/28 09:52:28;;;;;;;2.97;0.40;;;;;;;17.77;89.68;98453.75;4879460;29;20232;-65
2023/04/28 09:54:57;;;;;;;1.43;0.60;;;;;;;17.67;91.08;98455.97;4880879;29;20302;-65
2023/04/28 09:57:24;;;;;;;0.30;0.30;;;;;;;17.65;92.40;98450.88;4878434;29;20241;-65
2023/04/28 09:59:53;;;;;;;0.70;0.40;;;;;;;17.23;92.24;98453.63;4881569;29;20724;-65
2023/04/28 10:02:25;;;;;;;0.87;0.40;;;;;;;17.35;93.00;98458.34;4881287;29;20231;-65
2023/04/28 10:04:56;;;;;;;0.77;0.60;;;;;;;17.43;93.11;98447.59;4882074;29;20236;-65
2023/04/28 10:07:24;;;;;;;0.50;0.30;;;;;;;17.66;93.26;98444.59;4871873;29;20271;-65
2023/04/28 10:09:51;;;;;;;1.57;0.50;;;;;;;18.09;94.04;98455.81;4881947;29;20228;-65
2023/04/28 10:12:24;;;;;;;0.60;0.57;;;;;;;18.37;91.20;98460.06;4893827;29;20238;-65
2023/04/28 10:14:53;;;;;;;0.90;0.60;;;;;;;18.66;84.45;98444.75;4882908;29;20312;-65
2023/04/28 10:17:27;;;;;;;0.60;0.57;;;;;;;18.13;89.63;98441.19;4881509;28;20300;-65
2023/04/28 10:19:54;;;;;;;3.50;0.50;;;;;;;18.08;91.35;98444.44;4884165;29;20250;-65
2023/04/28 10:22:49;;;;;;;0.93;0.60;;;;;;;17.90;92.41;98454.78;4880721;29;20709;-65
2023/04/28 10:25:27;;;;;;;0.93;0.50;;;;;;;17.75;92.05;98450.50;4900214;29;20222;-65
2023/04/28 10:27:54;;;;;;;1.50;0.40;;;;;;;17.60;91.18;98453.31;4884666;29;20241;-65
2023/04/28 10:30:23;;;;;;;1.67;0.73;;;;;;;18.00;91.29;98444.66;4881238;29;20277;-65
2023/04/28 10:33:23;;;;;;;1.80;0.67;;;;;;;18.25;89.64;98444.00;4885428;29;20607;-65
2023/04/28 10:35:49;;;;;;;0.80;0.60;;;;;;;17.88;89.13;98447.06;4882745;29;20266;-65
2023/04/28 10:38:17;;;;;;;0.67;0.50;;;;;;;18.06;90.46;98451.75;4881490;29;20236;-65
2023/04/28 10:40:44;;;;;;;1.87;0.60;;;;;;;18.03;88.76;98443.44;4885548;29;20317;-66
2023/04/28 10:43:12;;;;;;;0.83;0.40;;;;;;;18.20;87.24;98443.81;4879164;29;20219;-65
2023/04/28 10:46:09;;;;;;;2.00;1.00;;;;;;;18.44;87.66;98447.66;4885990;29;20585;-65
2023/04/28 10:48:57;;;;;;;0.57;0.50;;;;;;;18.66;86.37;98445.56;4881663;29;20245;-65
2023/04/28 10:51:34;;;;;;;0.70;0.60;;;;;;;18.78;86.21;98439.63;4872243;29;20246;-65
2023/04/28 10:54:13;;;;;;;1.90;1.20;;;;;;;19.05;81.30;98432.44;4885526;29;20244;-65
2023/04/28 10:57:02;;;;;;;0.40;0.40;;;;;;;19.20;81.33;98432.13;4883572;29;20305;-66
2023/04/28 10:59:29;;;;;;;0.87;0.57;;;;;;;19.25;81.85;98432.31;4882306;29;20240;-66
2023/04/28 11:02:35;;;;;;;3.23;0.70;;;;;;;19.12;81.43;98422.63;4883545;29;20277;-66
2023/04/28 11:05:18;;;;;;;1.70;1.10;;;;;;;19.24;80.41;98425.41;4882155;29;20325;-66
2023/04/28 11:08:33;;;;;;;1.00;0.43;;;;;;;19.68;78.14;98422.88;4884670;29;20222;-66
2023/04/28 11:11:15;;;;;;;1.90;0.57;;;;;;;19.88;78.63;98417.44;4866677;29;20270;-65
2023/04/28 11:13:45;;;;;;;0.97;0.40;;;;;;;20.36;77.25;98428.44;4876253;29;20236;-66
2023/04/28 11:16:15;;;;;;;0.93;0.40;;;;;;;20.54;74.61;98419.69;4872557;29;20219;-66
2023/04/28 11:18:57;;;;;;;3.00;0.30;;;;;;;20.91;73.50;98424.19;4884013;29;20723;-66
2023/04/28 11:21:27;;;;;;;1.23;0.50;;;;;;;20.35;72.78;98426.81;4880601;29;20239;-66
2023/04/28 11:23:54;;;;;;;13.73;8.83;;;;;;;19.77;73.68;98408.34;4886077;29;20233;-66
2023/04/28 11:26:22;;;;;;;1.40;0.40;;;;;;;20.26;72.16;98407.75;4878918;29;20297;-66
2023/04/28 11:28:53;;;;;;;0.60;0.40;;;;;;;20.53;70.91;98404.81;4882995;29;20242;-66
2023/04/28 11:31:23;;;;;;;2.03;1.30;;;;;;;20.90;72.87;98404.00;4880477;29;20589;-66
2023/04/28 11:33:54;;;;;;;0.30;0.30;;;;;;;21.20;70.15;98400.56;4884939;29;20847;-66
2023/04/28 11:36:26;;;;;;;1.10;0.73;;;;;;;21.80;68.98;98401.50;4881674;29;20241;-66
2023/04/28 11:38:53;;;;;;;0.80;0.30;;;;;;;21.24;69.59;98407.00;4882953;29;20240;-66
2023/04/28 11:41:20;;;;;;;0.90;0.27;;;;;;;21.37;66.91;98412.13;4879095;29;20603;-65
2023/04/28 11:43:47;;;;;;;0.60;0.30;;;;;;;21.08;69.41;98403.16;4881845;29;20663;-65
2023/04/28 11:46:18;;;;;;;0.60;0.40;;;;;;;20.57;71.43;98397.22;4882411;29;20287;-65